TimeEDT,TemperatureF,Dew PointF,Humidity,Sea Level PressureIn,VisibilityMPH,Wind Direction,Wind SpeedMPH,Gust SpeedMPH,PrecipitationIn,Events,Conditions,WindDirDegrees,DateUTC
12:50 AM,55.4,55.4,100,29.61,4.0,NE,23.0,32.2,0.00,,Overcast,50,2012-10-29 04:50:00
12:53 AM,55.9,55.0,97,29.61,3.0,NE,23.0,34.5,0.00,Rain,Light Rain,50,2012-10-29 04:53:00
1:53 AM,55.9,55.0,97,29.58,5.0,NE,24.2,33.4,0.00,,Overcast,50,2012-10-29 05:53:00
2:41 AM,55.4,55.4,100,29.55,2.5,NE,25.3,36.8,0.01,Rain,Light Rain,50,2012-10-29 06:41:00
2:53 AM,55.9,55.9,100,29.54,2.5,NE,20.7,34.5,0.01,Rain,Light Rain,50,2012-10-29 06:53:00
3:23 AM,55.4,55.4,100,29.52,3.0,NE,24.2,35.7,0.00,Rain,Light Rain,50,2012-10-29 07:23:00
3:33 AM,55.4,55.4,100,29.52,2.5,NE,25.3,35.7,0.00,Rain,Light Rain,50,2012-10-29 07:33:00
3:44 AM,55.4,55.4,100,29.51,3.0,NE,23.0,34.5,0.00,Rain,Light Rain,50,2012-10-29 07:44:00
3:51 AM,55.4,55.4,100,29.50,2.5,NE,26.5,40.3,0.01,Rain,Light Rain,50,2012-10-29 07:51:00
3:53 AM,55.9,55.9,100,29.50,2.5,NE,24.2,40.3,0.01,Rain,Light Rain,50,2012-10-29 07:53:00
4:00 AM,55.4,55.4,100,29.50,3.0,NE,21.9,40.3,0.00,Rain,Light Rain,50,2012-10-29 08:00:00
4:09 AM,55.4,55.4,100,29.49,2.5,NE,28.8,35.7,0.00,Rain,Light Rain,40,2012-10-29 08:09:00
4:20 AM,57.2,55.4,94,29.48,3.0,NE,27.6,40.3,0.00,Rain,Light Rain,50,2012-10-29 08:20:00
4:53 AM,57.0,55.9,96,29.46,4.0,NE,27.6,40.3,0.00,Rain,Light Rain,50,2012-10-29 08:53:00
5:53 AM,57.9,57.0,97,29.44,6.0,ENE,21.9,35.7,0.00,,Overcast,60,2012-10-29 09:53:00
6:53 AM,57.9,57.0,97,29.41,4.0,NE,21.9,39.1,0.00,Rain,Light Rain,50,2012-10-29 10:53:00
7:20 AM,57.2,57.2,100,29.40,2.0,NE,28.8,40.3,0.01,Rain,Light Rain,50,2012-10-29 11:20:00
7:38 AM,59.0,57.2,94,29.39,3.0,ENE,24.2,42.6,0.01,Rain,Light Rain,60,2012-10-29 11:38:00
7:53 AM,59.0,57.9,96,29.39,4.0,NE,32.2,46.0,0.01,Rain,Light Rain,50,2012-10-29 11:53:00
8:53 AM,60.1,59.0,96,29.35,6.0,ENE,28.8,41.4,0.00,,Overcast,60,2012-10-29 12:53:00
9:13 AM,60.8,59.0,94,29.34,5.0,ENE,27.6,42.6,N/A,,Overcast,60,2012-10-29 13:13:00
9:53 AM,61.0,59.0,93,29.31,5.0,ENE,29.9,44.9,N/A,,Overcast,60,2012-10-29 13:53:00
10:53 AM,62.1,59.0,90,29.26,5.0,ENE,33.4,44.9,N/A,,Overcast,60,2012-10-29 14:53:00
11:46 AM,62.6,59.0,88,29.20,5.0,ENE,34.5,48.3,N/A,,Overcast,60,2012-10-29 15:46:00
11:53 AM,63.0,59.0,87,29.20,5.0,ENE,36.8,48.3,N/A,,Overcast,60,2012-10-29 15:53:00
12:53 PM,63.0,59.0,87,29.14,5.0,ENE,33.4,50.6,N/A,,Overcast,70,2012-10-29 16:53:00
1:18 PM,64.4,59.0,83,29.11,5.0,ENE,32.2,49.5,0.01,,Haze,70,2012-10-29 17:18:00
1:29 PM,64.4,59.0,83,29.10,5.0,ENE,41.4,56.4,0.01,,Haze,70,2012-10-29 17:29:00
1:53 PM,64.0,59.0,84,29.09,4.0,ENE,35.7,59.8,0.01,Rain,Light Rain,70,2012-10-29 17:53:00
2:09 PM,62.6,60.8,94,29.08,2.5,East,34.5,51.8,0.00,Rain,Light Rain,80,2012-10-29 18:09:00
2:20 PM,62.6,60.8,94,29.07,3.0,East,38.0,56.4,0.00,Rain,Light Rain,80,2012-10-29 18:20:00
2:40 PM,62.6,60.8,94,29.06,4.0,East,36.8,54.1,0.00,,Overcast,80,2012-10-29 18:40:00
2:53 PM,64.0,61.0,90,29.06,4.0,East,35.7,55.2,0.00,Rain,Light Rain,80,2012-10-29 18:53:00
3:09 PM,62.6,60.8,94,29.05,1.8,East,35.7,51.8,0.00,Rain,Rain,80,2012-10-29 19:09:00
3:27 PM,62.6,60.8,94,29.06,2.5,East,41.4,58.7,0.03,Rain,Light Rain,90,2012-10-29 19:27:00
3:36 PM,62.6,60.8,94,29.07,3.0,East,38.0,58.7,0.03,,Overcast,90,2012-10-29 19:36:00
3:53 PM,63.0,62.1,97,29.08,3.0,East,34.5,51.8,0.03,,Overcast,90,2012-10-29 19:53:00
4:01 PM,64.4,62.6,94,29.09,3.0,East,36.8,51.8,N/A,,Overcast,90,2012-10-29 20:01:00
4:22 PM,64.4,62.6,94,29.10,2.0,East,39.1,55.2,0.01,Rain,Light Rain,100,2012-10-29 20:22:00
4:33 PM,64.4,62.6,94,29.11,4.0,East,38.0,49.5,0.01,,Overcast,100,2012-10-29 20:33:00
4:53 PM,64.0,62.1,93,29.13,3.0,East,33.4,56.4,0.01,,Overcast,100,2012-10-29 20:53:00
5:53 PM,63.0,62.1,97,29.17,3.0,East,27.6,42.6,0.01,Rain,Light Rain,90,2012-10-29 21:53:00
6:53 PM,62.1,61.0,96,29.18,1.5,ESE,20.7,33.4,0.57,Rain,Heavy Rain,110,2012-10-29 22:53:00
7:53 PM,62.1,62.1,100,29.21,2.5,ESE,19.6,27.6,1.30,Rain,Rain,120,2012-10-29 23:53:00
8:53 PM,61.0,61.0,100,29.23,4.0,ESE,17.3,25.3,0.02,,Overcast,110,2012-10-30 00:53:00
9:16 PM,62.6,60.8,94,29.24,2.5,ESE,15.0,-,0.01,Rain,Light Rain,120,2012-10-30 01:16:00
9:25 PM,60.8,60.8,100,29.24,3.0,ESE,17.3,-,0.01,Rain,Light Rain,120,2012-10-30 01:25:00
9:32 PM,60.8,60.8,100,29.24,4.0,SE,15.0,-,0.01,,Overcast,130,2012-10-30 01:32:00
9:53 PM,61.0,59.0,93,29.26,4.0,ESE,15.0,-,0.02,,Overcast,120,2012-10-30 01:53:00
11:53 PM,60.1,57.9,93,29.32,3.0,SE,13.8,-,N/A,,Overcast,130,2012-10-30 03:53:00